sensor_id;sensor_type;location;lat;lon;timestamp;temperature;humidity
1055;DHT22;516;51.482;7.120;2022-08-14T00:01:29;20.40;43.90
1055;DHT22;516;51.482;7.120;2022-08-14T00:07:17;20.40;48.00
1055;DHT22;516;51.482;7.120;2022-08-14T00:13:05;20.10;50.20
1055;DHT22;516;51.482;7.120;2022-08-14T00:18:54;20.10;57.00
1055;DHT22;516;51.482;7.120;2022-08-14T00:24:43;20.10;53.70
1055;DHT22;516;51.482;7.120;2022-08-14T00:30:30;20.00;57.10
1055;DHT22;516;51.482;7.120;2022-08-14T00:36:21;19.90;54.10
1055;DHT22;516;51.482;7.120;2022-08-14T00:42:09;19.90;57.60
1055;DHT22;516;51.482;7.120;2022-08-14T00:47:57;19.80;58.10
1055;DHT22;516;51.482;7.120;2022-08-14T00:53:44;19.70;57.40
1055;DHT22;516;51.482;7.120;2022-08-14T00:59:33;19.70;66.40
1055;DHT22;516;51.482;7.120;2022-08-14T01:05:22;19.50;66.80
1055;DHT22;516;51.482;7.120;2022-08-14T01:11:12;19.50;75.10
1055;DHT22;516;51.482;7.120;2022-08-14T01:17:03;19.40;82.10
1055;DHT22;516;51.482;7.120;2022-08-14T01:22:51;19.30;84.20
1055;DHT22;516;51.482;7.120;2022-08-14T01:28:39;19.30;87.10
1055;DHT22;516;51.482;7.120;2022-08-14T01:34:21;19.10;91.40
1055;DHT22;516;51.482;7.120;2022-08-14T01:40:13;19.00;95.70
1055;DHT22;516;51.482;7.120;2022-08-14T01:46:00;18.90;97.30
1055;DHT22;516;51.482;7.120;2022-08-14T01:51:48;18.70;98.90
1055;DHT22;516;51.482;7.120;2022-08-14T01:57:43;19.00;98.80
1055;DHT22;516;51.482;7.120;2022-08-14T02:10:05;18.60;99.90
1055;DHT22;516;51.482;7.120;2022-08-14T02:15:53;18.50;99.90
1055;DHT22;516;51.482;7.120;2022-08-14T02:21:43;18.40;99.90
1055;DHT22;516;51.482;7.120;2022-08-14T02:27:12;18.30;99.90
1055;DHT22;516;51.482;7.120;2022-08-14T02:33:00;18.30;99.90
1055;DHT22;516;51.482;7.120;2022-08-14T02:35:25;18.20;99.90
1055;DHT22;516;51.482;7.120;2022-08-14T02:37:51;18.10;99.90
1055;DHT22;516;51.482;7.120;2022-08-14T02:43:39;18.10;99.90
1055;DHT22;516;51.482;7.120;2022-08-14T02:49:27;18.00;99.90
1055;DHT22;516;51.482;7.120;2022-08-14T02:58:56;17.90;99.90
1055;DHT22;516;51.482;7.120;2022-08-14T03:04:43;17.90;99.90
1055;DHT22;516;51.482;7.120;2022-08-14T03:10:31;17.80;99.90
1055;DHT22;516;51.482;7.120;2022-08-14T03:16:21;17.80;99.90
1055;DHT22;516;51.482;7.120;2022-08-14T03:22:09;17.80;99.90
1055;DHT22;516;51.482;7.120;2022-08-14T03:27:56;17.70;99.90
1055;DHT22;516;51.482;7.120;2022-08-14T03:33:43;17.80;99.90
1055;DHT22;516;51.482;7.120;2022-08-14T03:39:30;17.60;99.90
1055;DHT22;516;51.482;7.120;2022-08-14T03:45:17;17.40;99.90
1055;DHT22;516;51.482;7.120;2022-08-14T03:51:06;17.50;99.90
1055;DHT22;516;51.482;7.120;2022-08-14T03:56:56;17.30;99.90
1055;DHT22;516;51.482;7.120;2022-08-14T04:02:47;17.30;99.90
1055;DHT22;516;51.482;7.120;2022-08-14T04:08:39;17.40;99.90
1055;DHT22;516;51.482;7.120;2022-08-14T04:14:26;17.30;99.90
1055;DHT22;516;51.482;7.120;2022-08-14T04:20:14;17.30;99.90
1055;DHT22;516;51.482;7.120;2022-08-14T04:26:04;17.30;99.90
1055;DHT22;516;51.482;7.120;2022-08-14T04:31:52;17.40;99.90
1055;DHT22;516;51.482;7.120;2022-08-14T04:37:39;17.40;99.90
1055;DHT22;516;51.482;7.120;2022-08-14T04:43:45;17.20;99.90
1055;DHT22;516;51.482;7.120;2022-08-14T04:46:15;17.20;99.90
1055;DHT22;516;51.482;7.120;2022-08-14T04:48:41;17.20;99.90
1055;DHT22;516;51.482;7.120;2022-08-14T04:54:29;17.40;99.90
1055;DHT22;516;51.482;7.120;2022-08-14T05:00:16;17.50;99.90
1055;DHT22;516;51.482;7.120;2022-08-14T05:06:06;17.70;99.90
1055;DHT22;516;51.482;7.120;2022-08-14T05:11:53;18.00;99.90
1055;DHT22;516;51.482;7.120;2022-08-14T05:17:42;18.50;99.90
1055;DHT22;516;51.482;7.120;2022-08-14T05:23:30;19.00;99.90
1055;DHT22;516;51.482;7.120;2022-08-14T05:29:18;19.40;99.90
1055;DHT22;516;51.482;7.120;2022-08-14T05:35:05;20.00;99.90
1055;DHT22;516;51.482;7.120;2022-08-14T05:40:53;21.70;90.20
1055;DHT22;516;51.482;7.120;2022-08-14T05:46:40;22.30;68.60
1055;DHT22;516;51.482;7.120;2022-08-14T05:52:27;22.80;55.90
1055;DHT22;516;51.482;7.120;2022-08-14T05:58:16;23.30;49.50
1055;DHT22;516;51.482;7.120;2022-08-14T06:04:03;24.00;43.50
1055;DHT22;516;51.482;7.120;2022-08-14T06:09:50;23.50;36.20
1055;DHT22;516;51.482;7.120;2022-08-14T06:15:37;24.50;35.20
1055;DHT22;516;51.482;7.120;2022-08-14T06:21:24;25.40;27.60
1055;DHT22;516;51.482;7.120;2022-08-14T06:27:11;25.60;24.40
1055;DHT22;516;51.482;7.120;2022-08-14T06:32:59;25.80;23.30
1055;DHT22;516;51.482;7.120;2022-08-14T06:38:46;25.90;19.40
1055;DHT22;516;51.482;7.120;2022-08-14T06:47:55;26.60;17.10
1055;DHT22;516;51.482;7.120;2022-08-14T06:53:42;26.80;13.10
1055;DHT22;516;51.482;7.120;2022-08-14T06:59:29;27.40;12.10
1055;DHT22;516;51.482;7.120;2022-08-14T07:05:16;27.50;7.80
1055;DHT22;516;51.482;7.120;2022-08-14T07:11:21;27.80;6.30
1055;DHT22;516;51.482;7.120;2022-08-14T07:17:09;27.60;7.50
1055;DHT22;516;51.482;7.120;2022-08-14T07:22:56;27.70;7.50
1055;DHT22;516;51.482;7.120;2022-08-14T07:28:45;27.60;7.00
1055;DHT22;516;51.482;7.120;2022-08-14T07:34:33;27.80;6.60
1055;DHT22;516;51.482;7.120;2022-08-14T07:40:20;28.30;4.70
1055;DHT22;516;51.482;7.120;2022-08-14T07:46:07;28.30;5.30
1055;DHT22;516;51.482;7.120;2022-08-14T07:51:55;28.60;3.80
1055;DHT22;516;51.482;7.120;2022-08-14T07:57:44;28.20;4.20
1055;DHT22;516;51.482;7.120;2022-08-14T08:03:36;29.10;2.90
1055;DHT22;516;51.482;7.120;2022-08-14T08:09:28;29.50;3.10
1055;DHT22;516;51.482;7.120;2022-08-14T08:14:57;29.40;1.10
1055;DHT22;516;51.482;7.120;2022-08-14T08:20:47;29.30;1.70
1055;DHT22;516;51.482;7.120;2022-08-14T08:26:35;29.70;1.00
1055;DHT22;516;51.482;7.120;2022-08-14T08:32:22;29.90;1.00
1055;DHT22;516;51.482;7.120;2022-08-14T08:38:12;30.30;1.00
1055;DHT22;516;51.482;7.120;2022-08-14T08:44:04;30.10;1.00
1055;DHT22;516;51.482;7.120;2022-08-14T08:49:51;30.70;1.00
1055;DHT22;516;51.482;7.120;2022-08-14T08:55:42;30.40;1.00
1055;DHT22;516;51.482;7.120;2022-08-14T09:01:30;30.10;1.00
1055;DHT22;516;51.482;7.120;2022-08-14T09:04:02;29.60;1.00
1055;DHT22;516;51.482;7.120;2022-08-14T09:06:28;30.00;1.00
1055;DHT22;516;51.482;7.120;2022-08-14T09:12:17;30.90;1.00
1055;DHT22;516;51.482;7.120;2022-08-14T09:18:05;31.70;1.00
1055;DHT22;516;51.482;7.120;2022-08-14T09:23:54;31.30;1.00
1055;DHT22;516;51.482;7.120;2022-08-14T09:29:41;31.90;1.00
1055;DHT22;516;51.482;7.120;2022-08-14T09:45:48;30.70;1.00
1055;DHT22;516;51.482;7.120;2022-08-14T09:51:40;30.30;1.00
1055;DHT22;516;51.482;7.120;2022-08-14T09:57:29;32.20;1.00
1055;DHT22;516;51.482;7.120;2022-08-14T10:03:28;32.50;1.00
1055;DHT22;516;51.482;7.120;2022-08-14T10:12:59;32.70;1.00
1055;DHT22;516;51.482;7.120;2022-08-14T10:18:48;32.70;1.00
1055;DHT22;516;51.482;7.120;2022-08-14T10:24:40;32.70;1.00
1055;DHT22;516;51.482;7.120;2022-08-14T10:30:32;33.40;1.00
1055;DHT22;516;51.482;7.120;2022-08-14T10:36:27;33.60;1.00
1055;DHT22;516;51.482;7.120;2022-08-14T10:42:18;32.20;1.00
1055;DHT22;516;51.482;7.120;2022-08-14T10:48:13;32.70;1.00
1055;DHT22;516;51.482;7.120;2022-08-14T10:54:07;33.20;1.00
1055;DHT22;516;51.482;7.120;2022-08-14T10:59:57;33.50;1.00
1055;DHT22;516;51.482;7.120;2022-08-14T11:05:49;32.50;1.00
1055;DHT22;516;51.482;7.120;2022-08-14T11:11:54;31.90;1.00
1055;DHT22;516;51.482;7.120;2022-08-14T11:17:43;32.60;1.00
1055;DHT22;516;51.482;7.120;2022-08-14T11:23:35;33.00;1.00
1055;DHT22;516;51.482;7.120;2022-08-14T11:29:24;32.70;1.00
1055;DHT22;516;51.482;7.120;2022-08-14T11:35:13;33.80;1.00
1055;DHT22;516;51.482;7.120;2022-08-14T11:41:01;34.50;1.00
1055;DHT22;516;51.482;7.120;2022-08-14T11:46:48;34.00;1.00
1055;DHT22;516;51.482;7.120;2022-08-14T11:52:36;33.20;1.00
1055;DHT22;516;51.482;7.120;2022-08-14T11:58:30;34.70;1.00
1055;DHT22;516;51.482;7.120;2022-08-14T12:04:18;33.30;1.00
1055;DHT22;516;51.482;7.120;2022-08-14T12:20:09;34.10;1.00
1055;DHT22;516;51.482;7.120;2022-08-14T12:26:05;34.70;1.00
1055;DHT22;516;51.482;7.120;2022-08-14T12:32:00;35.40;1.00
1055;DHT22;516;51.482;7.120;2022-08-14T12:37:50;35.80;1.00
1055;DHT22;516;51.482;7.120;2022-08-14T12:43:46;33.30;1.00
1055;DHT22;516;51.482;7.120;2022-08-14T12:49:34;34.10;1.00
1055;DHT22;516;51.482;7.120;2022-08-14T12:55:21;35.50;1.00
1055;DHT22;516;51.482;7.120;2022-08-14T13:01:08;35.10;1.00
1055;DHT22;516;51.482;7.120;2022-08-14T13:07:00;34.00;1.00
1055;DHT22;516;51.482;7.120;2022-08-14T13:09:53;33.00;1.00
1055;DHT22;516;51.482;7.120;2022-08-14T13:12:20;32.60;1.00
1055;DHT22;516;51.482;7.120;2022-08-14T13:18:14;32.80;1.00
1055;DHT22;516;51.482;7.120;2022-08-14T13:24:02;31.60;1.00
1055;DHT22;516;51.482;7.120;2022-08-14T13:29:51;32.90;1.00
1055;DHT22;516;51.482;7.120;2022-08-14T13:35:39;33.40;1.00
1055;DHT22;516;51.482;7.120;2022-08-14T13:41:28;33.20;1.00
1055;DHT22;516;51.482;7.120;2022-08-14T13:47:16;32.90;1.00
1055;DHT22;516;51.482;7.120;2022-08-14T13:53:06;35.40;1.00
1055;DHT22;516;51.482;7.120;2022-08-14T13:58:57;34.10;1.00
1055;DHT22;516;51.482;7.120;2022-08-14T14:04:47;34.50;1.00
1055;DHT22;516;51.482;7.120;2022-08-14T14:10:18;34.00;1.00
1055;DHT22;516;51.482;7.120;2022-08-14T14:12:47;33.40;1.00
1055;DHT22;516;51.482;7.120;2022-08-14T14:15:16;32.80;1.00
1055;DHT22;516;51.482;7.120;2022-08-14T14:21:04;33.80;1.00
1055;DHT22;516;51.482;7.120;2022-08-14T14:26:53;34.60;1.00
1055;DHT22;516;51.482;7.120;2022-08-14T14:32:46;33.70;1.00
1055;DHT22;516;51.482;7.120;2022-08-14T14:38:34;34.70;1.00
1055;DHT22;516;51.482;7.120;2022-08-14T14:44:32;34.40;1.00
1055;DHT22;516;51.482;7.120;2022-08-14T14:50:22;34.60;1.00
1055;DHT22;516;51.482;7.120;2022-08-14T14:56:10;36.10;1.00
1055;DHT22;516;51.482;7.120;2022-08-14T15:05:20;36.30;1.00
1055;DHT22;516;51.482;7.120;2022-08-14T15:11:07;36.50;1.00
1055;DHT22;516;51.482;7.120;2022-08-14T15:20:46;36.70;1.00
1055;DHT22;516;51.482;7.120;2022-08-14T15:26:33;32.70;1.00
1055;DHT22;516;51.482;7.120;2022-08-14T15:32:21;33.40;1.00
1055;DHT22;516;51.482;7.120;2022-08-14T15:41:30;35.10;1.00
1055;DHT22;516;51.482;7.120;2022-08-14T15:47:17;36.00;1.00
1055;DHT22;516;51.482;7.120;2022-08-14T15:53:06;35.80;1.00
1055;DHT22;516;51.482;7.120;2022-08-14T16:02:16;36.00;1.00
1055;DHT22;516;51.482;7.120;2022-08-14T16:08:07;34.90;1.00
1055;DHT22;516;51.482;7.120;2022-08-14T16:17:19;33.00;1.00
1055;DHT22;516;51.482;7.120;2022-08-14T16:23:09;32.10;1.00
1055;DHT22;516;51.482;7.120;2022-08-14T16:28:58;33.70;1.00
1055;DHT22;516;51.482;7.120;2022-08-14T16:34:51;33.80;1.00
1055;DHT22;516;51.482;7.120;2022-08-14T16:40:42;35.90;1.00
1055;DHT22;516;51.482;7.120;2022-08-14T16:46:32;35.80;1.00
1055;DHT22;516;51.482;7.120;2022-08-14T16:52:20;34.40;1.00
1055;DHT22;516;51.482;7.120;2022-08-14T16:58:07;33.60;1.00
1055;DHT22;516;51.482;7.120;2022-08-14T17:04:05;34.00;1.00
1055;DHT22;516;51.482;7.120;2022-08-14T17:10:27;31.90;1.00
1055;DHT22;516;51.482;7.120;2022-08-14T17:16:13;31.50;1.00
1055;DHT22;516;51.482;7.120;2022-08-14T17:22:01;31.30;1.00
1055;DHT22;516;51.482;7.120;2022-08-14T17:33:59;30.90;1.00
1055;DHT22;516;51.482;7.120;2022-08-14T17:49:54;30.60;1.00
1055;DHT22;516;51.482;7.120;2022-08-14T17:55:43;30.30;1.00
1055;DHT22;516;51.482;7.120;2022-08-14T18:01:35;30.10;1.00
1055;DHT22;516;51.482;7.120;2022-08-14T18:10:45;29.80;1.00
1055;DHT22;516;51.482;7.120;2022-08-14T18:13:35;29.70;1.00
1055;DHT22;516;51.482;7.120;2022-08-14T18:16:02;29.60;1.00
1055;DHT22;516;51.482;7.120;2022-08-14T18:21:58;29.50;1.00
1055;DHT22;516;51.482;7.120;2022-08-14T18:27:47;29.30;1.00
1055;DHT22;516;51.482;7.120;2022-08-14T18:33:36;29.00;1.00
1055;DHT22;516;51.482;7.120;2022-08-14T18:39:34;28.70;1.00
1055;DHT22;516;51.482;7.120;2022-08-14T18:45:30;28.70;1.00
1055;DHT22;516;51.482;7.120;2022-08-14T18:51:37;28.50;1.00
1055;DHT22;516;51.482;7.120;2022-08-14T18:57:25;28.20;1.00
1055;DHT22;516;51.482;7.120;2022-08-14T19:19:03;27.20;2.70
1055;DHT22;516;51.482;7.120;2022-08-14T19:24:52;26.90;3.00
1055;DHT22;516;51.482;7.120;2022-08-14T19:30:40;26.70;4.10
1055;DHT22;516;51.482;7.120;2022-08-14T19:43:06;26.30;6.60
1055;DHT22;516;51.482;7.120;2022-08-14T19:48:54;26.10;9.30
1055;DHT22;516;51.482;7.120;2022-08-14T19:54:41;26.00;9.80
1055;DHT22;516;51.482;7.120;2022-08-14T20:00:29;25.90;10.80
1055;DHT22;516;51.482;7.120;2022-08-14T20:09:41;25.60;16.50
1055;DHT22;516;51.482;7.120;2022-08-14T20:15:33;25.40;18.10
1055;DHT22;516;51.482;7.120;2022-08-14T20:21:22;25.40;16.90
1055;DHT22;516;51.482;7.120;2022-08-14T20:27:24;25.20;19.90
1055;DHT22;516;51.482;7.120;2022-08-14T20:33:12;25.20;20.50
1055;DHT22;516;51.482;7.120;2022-08-14T20:39:07;25.00;22.60
1055;DHT22;516;51.482;7.120;2022-08-14T20:45:02;25.00;22.80
1055;DHT22;516;51.482;7.120;2022-08-14T20:57:59;24.90;26.00
1055;DHT22;516;51.482;7.120;2022-08-14T21:03:54;24.70;26.00
1055;DHT22;516;51.482;7.120;2022-08-14T21:09:48;24.80;24.10
1055;DHT22;516;51.482;7.120;2022-08-14T21:15:36;24.40;28.30
1055;DHT22;516;51.482;7.120;2022-08-14T21:24:45;23.90;36.80
1055;DHT22;516;51.482;7.120;2022-08-14T21:30:32;23.70;40.50
1055;DHT22;516;51.482;7.120;2022-08-14T21:36:19;23.70;43.60
1055;DHT22;516;51.482;7.120;2022-08-14T21:42:07;23.60;47.90
1055;DHT22;516;51.482;7.120;2022-08-14T21:47:54;23.40;50.60
1055;DHT22;516;51.482;7.120;2022-08-14T21:53:42;23.20;56.30
1055;DHT22;516;51.482;7.120;2022-08-14T21:59:31;23.10;61.70
1055;DHT22;516;51.482;7.120;2022-08-14T22:05:18;23.20;58.10
1055;DHT22;516;51.482;7.120;2022-08-14T22:14:28;22.80;67.80
1055;DHT22;516;51.482;7.120;2022-08-14T22:20:16;22.60;70.70
1055;DHT22;516;51.482;7.120;2022-08-14T22:26:04;22.50;72.50
1055;DHT22;516;51.482;7.120;2022-08-14T22:35:40;22.30;80.50
1055;DHT22;516;51.482;7.120;2022-08-14T22:41:28;22.20;83.30
1055;DHT22;516;51.482;7.120;2022-08-14T22:47:16;22.10;90.60
1055;DHT22;516;51.482;7.120;2022-08-14T22:53:05;22.00;93.70
1055;DHT22;516;51.482;7.120;2022-08-14T22:58:52;22.00;95.20
1055;DHT22;516;51.482;7.120;2022-08-14T23:04:41;21.90;96.90
1055;DHT22;516;51.482;7.120;2022-08-14T23:10:29;21.70;99.90
1055;DHT22;516;51.482;7.120;2022-08-14T23:16:15;21.60;96.80
1055;DHT22;516;51.482;7.120;2022-08-14T23:22:04;21.50;97.70
1055;DHT22;516;51.482;7.120;2022-08-14T23:27:52;21.40;99.90
1055;DHT22;516;51.482;7.120;2022-08-14T23:33:42;21.30;99.90
1055;DHT22;516;51.482;7.120;2022-08-14T23:39:32;21.20;99.90
1055;DHT22;516;51.482;7.120;2022-08-14T23:45:19;21.20;99.90
1055;DHT22;516;51.482;7.120;2022-08-14T23:51:08;21.10;99.90
1055;DHT22;516;51.482;7.120;2022-08-14T23:56:56;21.00;99.90
